createdAt,value
2023-03-06T00:00:52.628Z,7.25
2023-03-06T00:05:16.829Z,7.18
2023-03-06T00:09:39.342Z,7.60
2023-03-06T00:14:01.604Z,7.43
2023-03-06T00:18:23.742Z,7.47
2023-03-06T00:22:46.450Z,7.13
2023-03-06T00:27:10.078Z,8.55
2023-03-06T00:31:32.258Z,7.68
2023-03-06T00:35:54.147Z,7.82
2023-03-06T00:40:19.726Z,7.03
2023-03-06T00:44:41.970Z,7.45
2023-03-06T00:49:04.540Z,6.97
2023-03-06T00:53:26.827Z,7.55
2023-03-06T00:57:49.700Z,7.43
2023-03-06T01:02:11.993Z,7.03
2023-03-06T01:06:34.417Z,7.63
2023-03-06T01:10:58.640Z,8.18
2023-03-06T01:15:22.058Z,8.02
2023-03-06T01:19:44.196Z,7.90
2023-03-06T01:24:09.258Z,7.28
2023-03-06T01:28:31.734Z,7.97
2023-03-06T01:32:53.943Z,8.05
2023-03-06T01:37:16.577Z,7.93
2023-03-06T01:41:38.621Z,8.13
2023-03-06T01:46:42.183Z,8.30
2023-03-06T01:51:04.420Z,8.40
2023-03-06T01:55:33.240Z,8.15
2023-03-06T02:00:06.875Z,8.57
2023-03-06T02:04:39.129Z,7.88
2023-03-06T02:09:01.082Z,8.90
2023-03-06T02:13:23.302Z,8.52
2023-03-06T02:17:49.942Z,8.05
2023-03-06T02:22:12.263Z,9.40
2023-03-06T02:26:36.784Z,8.05
2023-03-06T02:30:58.749Z,8.30
2023-03-06T02:35:30.474Z,8.27
2023-03-06T02:40:01.581Z,8.27
2023-03-06T02:44:26.164Z,8.35
2023-03-06T02:48:48.222Z,8.77
2023-03-06T02:53:12.662Z,8.02
2023-03-06T02:57:34.480Z,8.95
2023-03-06T03:01:56.873Z,8.30
2023-03-06T03:06:19.976Z,8.60
2023-03-06T03:10:42.509Z,8.13
2023-03-06T03:15:06.387Z,9.57
2023-03-06T03:19:28.422Z,9.90
2023-03-06T03:23:51.399Z,8.95
2023-03-06T03:28:13.659Z,8.82
2023-03-06T03:32:35.756Z,9.80
2023-03-06T03:36:58.328Z,9.10
2023-03-06T03:41:20.462Z,9.10
2023-03-06T03:45:42.871Z,8.98
2023-03-06T03:50:06.503Z,9.52
2023-03-06T03:54:29.101Z,10.48
2023-03-06T03:58:53.144Z,9.80
2023-03-06T04:03:15.792Z,9.77
2023-03-06T04:07:41.140Z,10.25
2023-03-06T04:12:03.938Z,10.55
2023-03-06T04:16:26.245Z,10.63
2023-03-06T04:20:49.800Z,10.98
2023-03-06T04:25:14.232Z,10.80
2023-03-06T04:29:36.700Z,9.85
2023-03-06T04:33:59.010Z,10.30
2023-03-06T04:38:21.175Z,11.32
2023-03-06T04:42:43.222Z,10.60
2023-03-06T04:47:05.847Z,12.52
2023-03-06T04:51:28.531Z,11.60
2023-03-06T04:55:50.514Z,12.43
2023-03-06T05:00:24.805Z,12.98
2023-03-06T05:04:47.001Z,11.65
2023-03-06T05:09:09.298Z,13.02
2023-03-06T05:13:31.416Z,12.02
2023-03-06T05:17:53.453Z,12.40
2023-03-06T05:22:15.642Z,11.45
2023-03-06T05:26:37.836Z,12.23
2023-03-06T05:31:01.709Z,13.77
2023-03-06T05:35:25.504Z,13.43
2023-03-06T05:39:47.376Z,13.30
2023-03-06T05:44:09.599Z,13.60
2023-03-06T05:48:32.765Z,14.38
2023-03-06T05:52:54.862Z,14.40
2023-03-06T05:57:18.668Z,14.43
2023-03-06T06:01:40.659Z,13.65
2023-03-06T06:06:06.097Z,15.07
2023-03-06T06:10:28.184Z,13.95
2023-03-06T06:14:49.997Z,14.88
2023-03-06T06:19:18.704Z,13.13
2023-03-06T06:23:41.671Z,13.85
2023-03-06T06:28:05.874Z,13.18
2023-03-06T06:32:27.886Z,13.07
2023-03-06T06:36:53.216Z,13.40
2023-03-06T06:41:50.702Z,13.43
2023-03-06T06:46:16.460Z,12.57
2023-03-06T06:50:41.675Z,13.15
2023-03-06T06:55:03.945Z,12.38
2023-03-06T06:59:25.828Z,13.40
2023-03-06T07:03:47.796Z,14.13
2023-03-06T07:08:10.257Z,13.93
2023-03-06T07:12:33.054Z,13.20
2023-03-06T07:16:54.882Z,13.77
2023-03-06T07:21:18.758Z,13.38
2023-03-06T07:25:40.957Z,13.88
2023-03-06T07:30:03.428Z,14.90
2023-03-06T07:34:25.181Z,14.18
2023-03-06T07:38:47.758Z,14.32
2023-03-06T07:43:19.217Z,14.48
2023-03-06T07:47:52.870Z,14.38
2023-03-06T07:52:14.767Z,14.20
2023-03-06T07:56:37.385Z,13.55
2023-03-06T08:01:08.326Z,14.27
2023-03-06T08:05:30.408Z,13.80
2023-03-06T08:09:52.612Z,13.10
2023-03-06T08:14:14.462Z,13.23
2023-03-06T08:18:39.785Z,13.82
2023-03-06T08:23:01.933Z,12.50
2023-03-06T08:27:24.261Z,11.88
2023-03-06T08:31:47.089Z,12.52
2023-03-06T08:36:09.187Z,12.82
2023-03-06T08:40:31.247Z,11.07
2023-03-06T08:44:52.980Z,11.88
2023-03-06T08:49:14.976Z,10.63
2023-03-06T08:53:43.455Z,11.93
2023-03-06T08:58:06.595Z,10.40
2023-03-06T09:02:28.875Z,9.88
2023-03-06T09:06:51.063Z,9.32
2023-03-06T09:11:15.191Z,10.55
2023-03-06T09:15:36.873Z,10.77
2023-03-06T09:19:58.956Z,10.70
2023-03-06T09:24:21.104Z,9.63
2023-03-06T09:28:43.107Z,9.70
2023-03-06T09:33:05.342Z,9.98
2023-03-06T09:37:27.641Z,8.63
2023-03-06T09:41:51.141Z,10.00
2023-03-06T09:46:43.265Z,9.23
2023-03-06T09:51:17.184Z,10.10
2023-03-06T09:55:41.438Z,9.77
2023-03-06T10:00:17.339Z,11.15
2023-03-06T10:04:44.231Z,10.10
2023-03-06T10:09:26.237Z,11.32
2023-03-06T10:13:58.995Z,10.50
2023-03-06T10:18:20.940Z,10.35
2023-03-06T10:23:15.939Z,9.85
2023-03-06T10:27:49.258Z,10.18
2023-03-06T10:32:48.259Z,10.30
2023-03-06T10:37:30.987Z,10.77
2023-03-06T10:41:53.467Z,11.82
2023-03-06T10:46:29.410Z,10.50
2023-03-06T10:50:53.686Z,9.77
2023-03-06T10:55:30.981Z,10.90
2023-03-06T11:00:08.412Z,10.40
2023-03-06T11:04:36.637Z,9.85
2023-03-06T11:09:23.588Z,10.50
2023-03-06T11:13:55.920Z,10.77
2023-03-06T11:18:32.721Z,10.77
2023-03-06T11:23:06.866Z,11.15
2023-03-06T11:27:35.057Z,12.35
2023-03-06T11:32:52.642Z,12.15
2023-03-06T11:37:32.664Z,11.70
2023-03-06T11:42:18.778Z,12.95
2023-03-06T11:47:16.788Z,12.85
2023-03-06T11:51:51.775Z,13.30
2023-03-06T11:56:19.797Z,12.65
2023-03-06T12:01:06.537Z,15.20
2023-03-06T12:05:50.832Z,14.32
2023-03-06T12:10:32.590Z,14.85
2023-03-06T12:15:15.486Z,16.42
2023-03-06T12:20:10.498Z,16.35
2023-03-06T12:24:56.452Z,14.98
2023-03-06T12:29:48.215Z,15.85
2023-03-06T12:34:25.004Z,15.45
2023-03-06T12:39:22.152Z,16.17
2023-03-06T12:43:52.945Z,16.00
2023-03-06T12:48:25.419Z,14.30
2023-03-06T12:52:49.164Z,13.10
2023-03-06T12:57:15.283Z,12.07
2023-03-06T13:02:08.449Z,12.70
2023-03-06T13:06:54.647Z,12.35
2023-03-06T13:11:51.583Z,12.20
2023-03-06T13:16:16.425Z,13.05
2023-03-06T13:20:45.183Z,11.88
2023-03-06T13:25:21.069Z,9.55
2023-03-06T13:29:51.280Z,9.77
2023-03-06T13:34:31.749Z,10.10
2023-03-06T13:38:55.198Z,11.38
2023-03-06T13:43:21.877Z,10.40
2023-03-06T13:53:06.964Z,10.32
2023-03-06T13:58:01.097Z,11.77
2023-03-06T14:03:19.195Z,10.77
2023-03-06T14:08:02.575Z,10.45
2023-03-06T14:12:38.678Z,10.93
2023-03-06T14:17:05.161Z,10.30
2023-03-06T14:21:32.934Z,11.20
2023-03-06T14:26:15.941Z,10.90
2023-03-06T14:30:38.132Z,9.65
2023-03-06T14:35:00.540Z,10.57
2023-03-06T14:39:39.005Z,9.13
2023-03-06T14:44:21.965Z,7.65
2023-03-06T14:48:47.077Z,7.60
2023-03-06T14:53:28.171Z,8.10
2023-03-06T14:58:14.260Z,8.23
2023-03-06T15:02:36.376Z,7.32
2023-03-06T15:06:59.601Z,7.57
2023-03-06T15:11:21.542Z,7.68
2023-03-06T15:15:54.667Z,7.50
2023-03-06T15:20:47.286Z,7.88
2023-03-06T15:25:30.173Z,8.35
2023-03-06T15:29:52.158Z,8.27
2023-03-06T15:34:18.667Z,7.65
2023-03-06T15:38:44.286Z,8.43
2023-03-06T15:43:11.337Z,7.78
2023-03-06T15:47:33.383Z,9.20
2023-03-06T15:51:55.340Z,8.85
2023-03-06T15:56:23.481Z,7.93
2023-03-06T16:00:45.574Z,7.35
2023-03-06T16:05:17.202Z,8.00
2023-03-06T16:09:39.979Z,8.02
2023-03-06T16:14:02.717Z,8.77
2023-03-06T16:18:25.159Z,9.38
2023-03-06T16:22:49.823Z,9.77
2023-03-06T16:27:23.542Z,9.25
2023-03-06T16:31:45.924Z,9.07
2023-03-06T16:36:21.398Z,8.95
2023-03-06T16:40:44.219Z,9.95
2023-03-06T16:45:07.062Z,11.60
2023-03-06T16:49:29.071Z,10.15
2023-03-06T16:53:51.572Z,11.45
2023-03-06T16:58:13.675Z,11.13
2023-03-06T17:02:35.618Z,11.80
2023-03-06T17:06:57.999Z,11.82
2023-03-06T17:11:20.685Z,10.95
2023-03-06T17:15:56.543Z,13.05
2023-03-06T17:20:19.977Z,15.52
2023-03-06T17:24:43.202Z,13.00
2023-03-06T17:29:07.043Z,12.73
2023-03-06T17:33:29.691Z,13.77
2023-03-06T17:37:51.921Z,12.82
2023-03-06T17:42:14.560Z,14.25
2023-03-06T17:46:36.802Z,13.20
2023-03-06T17:50:59.119Z,14.35
2023-03-06T17:55:21.217Z,16.08
2023-03-06T17:59:47.965Z,16.33
2023-03-06T18:04:11.695Z,15.45
2023-03-06T18:08:33.959Z,16.33
2023-03-06T18:12:56.950Z,17.23
2023-03-06T18:17:19.011Z,17.30
2023-03-06T18:21:41.394Z,16.77
2023-03-06T18:26:22.301Z,16.95
2023-03-06T18:30:44.595Z,18.33
2023-03-06T18:35:09.284Z,19.00
2023-03-06T18:39:31.209Z,19.10
2023-03-06T18:43:55.514Z,18.65
2023-03-06T18:48:17.480Z,19.30
2023-03-06T18:52:39.776Z,17.60
2023-03-06T18:57:02.009Z,18.05
2023-03-06T19:01:24.985Z,19.13
2023-03-06T19:05:49.025Z,18.45
2023-03-06T19:10:11.839Z,17.30
2023-03-06T19:14:40.818Z,19.27
2023-03-06T19:19:03.255Z,19.92
2023-03-06T19:23:25.814Z,19.60
2023-03-06T19:27:48.163Z,20.83
2023-03-06T19:32:10.669Z,20.30
2023-03-06T19:36:34.474Z,18.38
2023-03-06T19:40:56.738Z,19.33
2023-03-06T19:45:19.146Z,16.30
2023-03-06T19:49:44.247Z,17.15
2023-03-06T19:54:06.387Z,18.73
2023-03-06T19:58:29.891Z,17.63
2023-03-06T20:02:52.390Z,17.88
2023-03-06T20:07:14.408Z,17.95
2023-03-06T20:11:36.945Z,16.25
2023-03-06T20:16:04.182Z,16.55
2023-03-06T20:20:26.564Z,17.38
2023-03-06T20:24:49.275Z,16.20
2023-03-06T20:29:12.416Z,18.48
2023-03-06T20:33:34.589Z,17.23
2023-03-06T20:37:56.442Z,17.80
2023-03-06T20:42:18.518Z,18.02
2023-03-06T20:46:40.632Z,19.15
2023-03-06T20:51:08.247Z,19.35
2023-03-06T20:55:30.306Z,19.38
2023-03-06T20:59:52.598Z,20.05
2023-03-06T21:04:19.022Z,20.88
2023-03-06T21:08:41.560Z,21.17
2023-03-06T21:13:03.758Z,21.75
2023-03-06T21:17:26.000Z,22.25
2023-03-06T21:21:48.602Z,23.20
2023-03-06T21:26:31.701Z,23.35
2023-03-06T21:30:53.802Z,19.95
2023-03-06T21:35:16.544Z,19.95
2023-03-06T21:39:38.769Z,22.33
2023-03-06T21:44:04.645Z,21.45
2023-03-06T21:48:26.886Z,20.52
2023-03-06T21:52:48.865Z,21.90
2023-03-06T21:57:10.782Z,21.27
2023-03-06T22:01:33.107Z,20.58
2023-03-06T22:05:56.736Z,20.88
2023-03-06T22:10:19.061Z,19.13
2023-03-06T22:14:46.422Z,20.27
2023-03-06T22:19:08.672Z,21.52
2023-03-06T22:23:30.766Z,21.02
2023-03-06T22:27:52.660Z,20.88
2023-03-06T22:32:15.780Z,21.48
2023-03-06T22:36:38.036Z,19.83
2023-03-06T22:41:00.775Z,19.88
2023-03-06T22:45:23.100Z,18.90
2023-03-06T22:49:45.203Z,19.98
2023-03-06T22:54:08.244Z,19.30
2023-03-06T22:58:34.573Z,19.90
2023-03-06T23:02:56.224Z,21.23
2023-03-06T23:07:20.478Z,20.65
2023-03-06T23:11:43.957Z,21.15
2023-03-06T23:16:25.699Z,19.27
2023-03-06T23:21:18.636Z,21.45
2023-03-06T23:26:00.517Z,21.05
2023-03-06T23:30:22.820Z,21.00
2023-03-06T23:34:44.581Z,21.25
2023-03-06T23:39:06.542Z,21.20
2023-03-06T23:43:28.741Z,20.08
2023-03-06T23:47:50.584Z,21.15
2023-03-06T23:52:12.798Z,21.13
2023-03-06T23:56:34.541Z,21.38
